Map

Track Data

SID SEASON NUMBER BASIN SUBBASIN NAME ISO_TIME NATURE LAT LON WMO_WIND WMO_PRES WMO_AGENCY TRACK_TYPE DIST2LAND LANDFALL IFLAG USA_AGENCY USA_ATCF_ID USA_LAT USA_LON USA_RECORD USA_STATUS USA_WIND USA_PRES USA_SSHS USA_R34_NE USA_R34_SE USA_R34_SW USA_R34_NW USA_R50_NE USA_R50_SE USA_R50_SW USA_R50_NW USA_R64_NE USA_R64_SE USA_R64_SW USA_R64_NW USA_POCI USA_ROCI USA_RMW USA_EYE TOKYO_LAT TOKYO_LON TOKYO_GRADE TOKYO_WIND TOKYO_PRES TOKYO_R50_DIR TOKYO_R50_LONG TOKYO_R50_SHORT TOKYO_R30_DIR TOKYO_R30_LONG TOKYO_R30_SHORT TOKYO_LAND CMA_LAT CMA_LON CMA_CAT CMA_WIND CMA_PRES HKO_LAT HKO_LON HKO_CAT HKO_WIND HKO_PRES NEWDELHI_LAT NEWDELHI_LON NEWDELHI_GRADE NEWDELHI_WIND NEWDELHI_PRES NEWDELHI_CI NEWDELHI_DP NEWDELHI_POCI REUNION_LAT REUNION_LON REUNION_TYPE REUNION_WIND REUNION_PRES REUNION_TNUM REUNION_CI REUNION_RMW REUNION_R34_NE REUNION_R34_SE REUNION_R34_SW REUNION_R34_NW REUNION_R50_NE REUNION_R50_SE REUNION_R50_SW REUNION_R50_NW REUNION_R64_NE REUNION_R64_SE REUNION_R64_SW REUNION_R64_NW BOM_LAT BOM_LON BOM_TYPE BOM_WIND BOM_PRES BOM_TNUM BOM_CI BOM_RMW BOM_R34_NE BOM_R34_SE BOM_R34_SW BOM_R34_NW BOM_R50_NE BOM_R50_SE BOM_R50_SW BOM_R50_NW BOM_R64_NE BOM_R64_SE BOM_R64_SW BOM_R64_NW BOM_ROCI BOM_POCI BOM_EYE BOM_POS_METHOD BOM_PRES_METHOD NADI_LAT NADI_LON NADI_CAT NADI_WIND NADI_PRES WELLINGTON_LAT WELLINGTON_LON WELLINGTON_WIND WELLINGTON_PRES DS824_LAT DS824_LON DS824_STAGE DS824_WIND DS824_PRES TD9636_LAT TD9636_LON TD9636_STAGE TD9636_WIND TD9636_PRES TD9635_LAT TD9635_LON TD9635_WIND TD9635_PRES TD9635_ROCI NEUMANN_LAT NEUMANN_LON NEUMANN_CLASS NEUMANN_WIND NEUMANN_PRES MLC_LAT MLC_LON MLC_CLASS MLC_WIND MLC_PRES USA_GUST BOM_GUST BOM_GUST_PER REUNION_GUST REUNION_GUST_PER USA_SEAHGT USA_SEARAD_NE USA_SEARAD_SE USA_SEARAD_SW USA_SEARAD_NW STORM_SPEED STORM_DIR
1911037S19116 1911 12 SI WA NOT_NAMED 1911-02-06 00:00:00 NR -19.4000 115.600 main 176 172 __________O___ -1 -19.4000 115.600 7 34 54
1911037S19116 1911 12 SI WA NOT_NAMED 1911-02-06 01:00:00 NR -19.0649 116.088 bom main 179 175 ______O___P___ -1 -18.3000 117.100 -19.4473 115.582 7 12 63
1911037S19116 1911 12 SI WA NOT_NAMED 1911-02-06 03:00:00 NR -19.1321 116.166 main 175 154 ______P___P___ -1 -18.5168 117.094 -19.5423 115.547 7 3 165
1911037S19116 1911 12 SI WA NOT_NAMED 1911-02-06 06:00:00 NR -19.3274 116.166 main 154 133 ______P___P___ -1 -18.8471 117.060 -19.6877 115.496 7 4 173
1911037S19116 1911 12 SI WA NOT_NAMED 1911-02-06 09:00:00 NR -19.5148 116.204 main 133 109 ______P___P___ -1 -19.1903 116.962 -19.8392 115.446 7 5 190
1911037S19116 1911 12 SI WA NOT_NAMED 1911-02-06 12:00:00 NR -19.7772 116.081 main 109 99 ______P___O___ -1 -19.5543 116.763 -20.0000 115.400 7 6 209
1911037S19116 1911 12 SI WA NOT_NAMED 1911-02-06 15:00:00 NR -20.0606 115.888 main 94 84 ______P___P___ -1 -19.9465 116.421 -20.1748 115.354 7 7 217
1911037S19116 1911 12 SI WA NOT_NAMED 1911-02-06 17:30:00 NR -20.3195 115.651 bom main 84 83 ______O___P___ -1 -20.3000 116.000 -20.3390 115.302 7 8 222
1911037S19116 1911 12 SI WA NOT_NAMED 1911-02-06 18:00:00 NR -20.3742 115.594 main 83 76 ______P___P___ -1 -20.3739 115.899 -20.3746 115.289 7 10 227
1911037S19116 1911 12 SI WA NOT_NAMED 1911-02-06 21:00:00 NR -20.7201 115.189 main 83 70 ______P___P___ -1 -20.8280 115.200 -20.6121 115.179 7 11 229
1911037S19116 1911 12 SI WA NOT_NAMED 1911-02-07 00:00:00 NR -21.0829 114.721 main 70 63 ______P___O___ -1 -21.2658 114.442 -20.9000 115.000 7 11 230
1911037S19116 1911 12 SI WA NOT_NAMED 1911-02-07 01:00:00 NR -21.2050 114.559 bom main 63 54 ______O___P___ -1 -21.4000 114.200 -21.0100 114.917 7 12 231
1911037S19116 1911 12 SI WA NOT_NAMED 1911-02-07 03:00:00 NR -21.4467 114.238 main 56 22 ______P___P___ -1 -21.6435 113.754 -21.2500 114.722 7 11 231
1911037S19116 1911 12 SI WA NOT_NAMED 1911-02-07 06:00:00 NR -21.7993 113.777 main 23 23 ______P___P___ -1 -21.9507 113.179 -21.6480 114.376 7 11 230
1911037S19116 1911 12 SI WA NOT_NAMED 1911-02-07 09:00:00 NR -22.1347 113.347 main 56 52 ______P___P___ -1 -22.1976 112.703 -22.0719 113.991 7 10 230
1911037S19116 1911 12 SI WA NOT_NAMED 1911-02-07 12:00:00 NR -22.4471 112.955 main 65 65 ______P___O___ -1 -22.3942 112.310 -22.5000 113.600 7 9 229
1911037S19116 1911 12 SI WA NOT_NAMED 1911-02-07 15:00:00 NR -22.7328 112.607 main 103 103 ______P___P___ -1 -22.5504 111.987 -22.9152 113.228 7 9 234
1911037S19116 1911 12 SI WA NOT_NAMED 1911-02-07 18:00:00 NR -22.9508 112.213 main 150 150 ______P___P___ -1 -22.6757 111.716 -23.3176 112.876 7 8 237
1911037S19116 1911 12 SI WA NOT_NAMED 1911-02-07 21:00:00 NR -23.1521 111.903 main 180 176 ______P___P___ -1 -22.7794 111.482 -23.7112 112.535 7 7 240
1911037S19116 1911 12 SI WA NOT_NAMED 1911-02-08 00:00:00 NR -23.2805 111.579 main 204 204 ______P___O___ -1 -22.8707 111.269 -24.1000 112.200 7 10 291
1911037S19116 1911 12 SI WA NOT_NAMED 1911-02-08 01:00:00 NR -22.9000 111.200 bom main 248 ______O_______ -1 -22.9000 111.200 7 31 318

About IBTrACS Database

This database is a web-friendly format of International Best Track Archive for Climate Stewardship (IBTrACS), a global best track data archive curated by NOAA dating back to 1842.

Updated: 2021-11-26